createdAt,value
2023-03-30T00:04:43.310Z,22.45
2023-03-30T00:09:46.586Z,25.40
2023-03-30T00:14:49.514Z,24.92
2023-03-30T00:19:51.940Z,24.80
2023-03-30T00:24:54.330Z,23.38
2023-03-30T00:29:56.645Z,21.52
2023-03-30T00:34:58.710Z,20.85
2023-03-30T00:40:01.189Z,19.92
2023-03-30T00:45:36.759Z,22.20
2023-03-30T00:50:44.815Z,17.60
2023-03-30T00:55:49.098Z,20.25
2023-03-30T01:00:51.950Z,22.05
2023-03-30T01:05:56.557Z,20.33
2023-03-30T01:11:01.806Z,21.80
2023-03-30T01:16:24.720Z,24.38
2023-03-30T01:21:45.834Z,25.25
2023-03-30T01:26:56.113Z,25.95
2023-03-30T01:32:14.935Z,21.98
2023-03-30T01:37:35.703Z,26.38
2023-03-30T01:42:50.666Z,24.97
2023-03-30T01:48:11.062Z,20.42
2023-03-30T01:53:42.200Z,19.98
2023-03-30T01:58:47.659Z,15.43
2023-03-30T02:03:56.633Z,17.55
2023-03-30T02:09:00.495Z,16.27
2023-03-30T02:14:04.948Z,17.98
2023-03-30T02:19:07.880Z,16.40
2023-03-30T02:24:19.392Z,13.60
2023-03-30T02:29:23.075Z,12.20
2023-03-30T02:34:34.077Z,13.73
2023-03-30T02:40:13.611Z,12.07
2023-03-30T02:45:34.733Z,10.95
2023-03-30T02:50:49.156Z,9.68
2023-03-30T02:56:34.076Z,9.52
2023-03-30T03:01:40.074Z,11.07
2023-03-30T03:06:47.521Z,11.20
2023-03-30T03:11:49.648Z,10.95
2023-03-30T03:16:51.776Z,11.98
2023-03-30T03:21:54.334Z,13.95
2023-03-30T03:26:57.067Z,7.65
2023-03-30T03:32:00.783Z,10.30
2023-03-30T03:37:08.029Z,9.55
2023-03-30T03:42:10.516Z,7.30
2023-03-30T03:47:23.175Z,8.20
2023-03-30T03:52:25.382Z,7.68
2023-03-30T03:57:27.719Z,6.85
2023-03-30T04:02:30.731Z,7.07
2023-03-30T04:07:34.345Z,7.97
2023-03-30T04:12:36.531Z,6.95
2023-03-30T04:17:50.010Z,8.90
2023-03-30T04:23:10.036Z,7.43
2023-03-30T04:28:33.055Z,7.47
2023-03-30T04:33:52.065Z,9.38
2023-03-30T04:39:32.759Z,5.25
2023-03-30T04:45:13.251Z,6.80
2023-03-30T04:50:25.211Z,6.95
2023-03-30T04:55:50.816Z,5.95
2023-03-30T05:01:16.304Z,5.03
2023-03-30T05:06:57.463Z,4.65
2023-03-30T05:12:16.832Z,5.32
2023-03-30T05:17:43.271Z,4.20
2023-03-30T05:23:04.521Z,3.22
2023-03-30T05:28:37.790Z,4.93
2023-03-30T05:33:56.533Z,3.30
2023-03-30T05:39:10.219Z,4.90
2023-03-30T05:44:26.505Z,5.07
2023-03-30T05:50:01.074Z,4.65
2023-03-30T05:55:24.083Z,4.38
2023-03-30T06:00:46.624Z,4.57
2023-03-30T06:05:58.720Z,4.63
2023-03-30T06:11:01.859Z,4.07
2023-03-30T06:16:11.300Z,3.53
2023-03-30T06:21:13.669Z,2.88
2023-03-30T06:26:28.263Z,3.80
2023-03-30T06:31:30.749Z,2.40
2023-03-30T06:36:56.224Z,3.67
2023-03-30T06:41:59.854Z,5.63
2023-03-30T06:47:22.469Z,4.75
2023-03-30T06:52:25.914Z,4.03
2023-03-30T06:57:36.650Z,3.92
2023-03-30T07:02:39.942Z,4.53
2023-03-30T07:07:57.109Z,3.78
2023-03-30T07:12:59.943Z,3.47
2023-03-30T07:18:03.554Z,3.70
2023-03-30T07:23:06.307Z,2.75
2023-03-30T07:28:09.094Z,3.67
2023-03-30T07:33:11.695Z,1.98
2023-03-30T07:38:14.707Z,3.40
2023-03-30T07:43:22.373Z,2.72
2023-03-30T07:48:25.095Z,2.00
2023-03-30T07:53:27.653Z,1.38
2023-03-30T07:58:30.452Z,2.03
2023-03-30T08:03:33.210Z,3.55
2023-03-30T08:08:38.857Z,3.38
2023-03-30T08:13:41.603Z,3.30
2023-03-30T08:18:43.656Z,4.55
2023-03-30T08:23:45.723Z,4.80
2023-03-30T08:28:47.817Z,4.50
2023-03-30T08:33:50.060Z,7.93
2023-03-30T08:38:54.772Z,3.35
2023-03-30T08:44:16.996Z,6.22
2023-03-30T08:49:20.918Z,5.65
2023-03-30T08:54:25.935Z,3.67
2023-03-30T08:59:48.208Z,3.30
2023-03-30T09:05:01.930Z,3.03
2023-03-30T09:10:12.813Z,2.17
2023-03-30T09:15:26.989Z,4.45
2023-03-30T09:20:32.578Z,6.30
2023-03-30T09:25:51.261Z,2.72
2023-03-30T09:31:18.238Z,3.45
2023-03-30T09:36:52.411Z,1.80
2023-03-30T09:42:33.954Z,4.70
2023-03-30T09:47:39.412Z,2.95
2023-03-30T09:52:53.726Z,7.38
2023-03-30T09:58:10.245Z,1.83
2023-03-30T10:03:23.482Z,2.47
2023-03-30T10:08:25.810Z,1.27
2023-03-30T10:13:32.649Z,1.83
2023-03-30T10:18:42.754Z,2.40
2023-03-30T10:23:47.362Z,4.78
2023-03-30T10:29:17.139Z,2.47
2023-03-30T10:34:36.651Z,4.78
2023-03-30T10:39:42.378Z,3.15
2023-03-30T10:45:00.972Z,2.25
2023-03-30T10:50:24.595Z,4.05
2023-03-30T10:55:29.270Z,2.15
2023-03-30T11:01:00.425Z,2.03
2023-03-30T11:06:14.752Z,2.23
2023-03-30T11:11:23.459Z,3.72
2023-03-30T11:17:01.846Z,2.80
2023-03-30T11:22:16.146Z,2.65
2023-03-30T11:27:43.850Z,2.40
2023-03-30T11:32:54.316Z,3.88
2023-03-30T11:38:29.561Z,2.20
2023-03-30T11:43:32.078Z,3.53
2023-03-30T11:48:36.079Z,2.72
2023-03-30T11:54:07.308Z,3.47
2023-03-30T11:59:24.033Z,4.20
2023-03-30T12:04:39.478Z,4.90
2023-03-30T12:10:01.777Z,5.32
2023-03-30T12:15:23.475Z,3.20
2023-03-30T12:20:35.309Z,5.88
2023-03-30T12:26:07.354Z,5.57
2023-03-30T12:36:34.383Z,2.72
2023-03-30T12:41:43.342Z,3.05
2023-03-30T12:46:53.472Z,5.57
2023-03-30T12:52:21.714Z,2.92
2023-03-30T12:57:48.241Z,3.95
2023-03-30T13:03:02.229Z,2.83
2023-03-30T13:08:29.910Z,4.07
2023-03-30T13:13:59.000Z,3.97
2023-03-30T13:19:14.665Z,3.78
2023-03-30T13:24:32.137Z,3.28
2023-03-30T13:29:34.357Z,2.78
2023-03-30T13:34:36.398Z,3.67
2023-03-30T13:39:44.353Z,3.00
2023-03-30T13:45:12.389Z,3.55
2023-03-30T13:50:26.303Z,4.75
2023-03-30T13:55:35.733Z,4.97
2023-03-30T14:00:48.609Z,8.07
2023-03-30T14:05:52.562Z,4.30
2023-03-30T14:10:55.085Z,4.03
2023-03-30T14:15:57.350Z,7.03
2023-03-30T14:21:02.043Z,5.70
2023-03-30T14:26:16.285Z,4.10
2023-03-30T14:31:21.232Z,5.13
2023-03-30T14:36:23.805Z,3.72
2023-03-30T14:41:28.544Z,5.25
2023-03-30T14:46:47.101Z,4.13
2023-03-30T14:51:54.024Z,7.40
2023-03-30T14:57:05.386Z,3.40
2023-03-30T15:02:18.670Z,4.28
2023-03-30T15:07:21.093Z,9.60
2023-03-30T15:12:46.027Z,5.63
2023-03-30T15:17:50.992Z,6.43
2023-03-30T15:22:54.211Z,6.55
2023-03-30T15:28:01.659Z,6.22
2023-03-30T15:33:05.882Z,7.70
2023-03-30T15:38:10.921Z,5.97
2023-03-30T15:43:23.302Z,6.13
2023-03-30T15:48:36.147Z,6.38
2023-03-30T15:53:53.652Z,7.20
2023-03-30T15:58:58.487Z,10.00
2023-03-30T16:04:01.563Z,9.82
2023-03-30T16:09:03.779Z,10.07
2023-03-30T16:14:10.745Z,8.52
2023-03-30T16:19:19.757Z,7.22
2023-03-30T16:24:21.981Z,5.10
2023-03-30T16:29:24.773Z,5.07
2023-03-30T16:34:27.269Z,4.63
2023-03-30T16:39:30.651Z,5.28
2023-03-30T16:44:32.740Z,6.72
2023-03-30T16:49:34.760Z,7.93
2023-03-30T16:54:36.791Z,6.22
2023-03-30T16:59:38.892Z,8.00
2023-03-30T17:04:41.090Z,7.20
2023-03-30T17:09:43.152Z,8.07
2023-03-30T17:14:45.233Z,9.70
2023-03-30T17:19:47.289Z,9.77
2023-03-30T17:24:49.382Z,8.40
2023-03-30T17:29:51.441Z,9.38
2023-03-30T17:34:53.490Z,7.85
2023-03-30T17:39:56.296Z,9.00
2023-03-30T17:44:58.342Z,9.15
2023-03-30T17:50:00.706Z,9.52
2023-03-30T17:55:02.747Z,7.80
2023-03-30T18:00:15.175Z,7.05
2023-03-30T18:05:18.432Z,6.78
2023-03-30T18:10:23.447Z,8.18
2023-03-30T18:15:28.122Z,8.85
2023-03-30T18:20:34.307Z,8.95
2023-03-30T18:25:36.559Z,5.55
2023-03-30T18:30:39.243Z,5.22
2023-03-30T18:35:42.247Z,6.63
2023-03-30T18:40:46.910Z,4.22
2023-03-30T18:45:50.546Z,4.45
2023-03-30T18:50:55.765Z,4.82
2023-03-30T18:56:00.737Z,5.85
2023-03-30T19:01:03.248Z,8.10
2023-03-30T19:06:08.965Z,4.35
2023-03-30T19:11:16.684Z,4.85
2023-03-30T19:16:18.882Z,6.00
2023-03-30T19:21:21.068Z,2.70
2023-03-30T19:26:23.561Z,3.30
2023-03-30T19:31:25.693Z,3.35
2023-03-30T19:36:27.937Z,3.90
2023-03-30T19:41:30.061Z,3.95
2023-03-30T19:46:32.249Z,4.57
2023-03-30T19:51:34.408Z,3.78
2023-03-30T19:56:37.376Z,3.38
2023-03-30T20:01:39.843Z,5.20
2023-03-30T20:06:42.085Z,3.63
2023-03-30T20:11:44.881Z,4.25
2023-03-30T20:16:47.639Z,4.78
2023-03-30T20:21:49.838Z,5.50
2023-03-30T20:26:52.743Z,6.03
2023-03-30T20:31:54.861Z,5.90
2023-03-30T20:36:57.082Z,5.90
2023-03-30T20:42:02.068Z,7.13
2023-03-30T20:47:04.478Z,4.13
2023-03-30T20:52:07.661Z,5.32
2023-03-30T20:57:09.877Z,3.90
2023-03-30T21:02:12.079Z,3.45
2023-03-30T21:07:16.418Z,4.00
2023-03-30T21:12:18.537Z,2.90
2023-03-30T21:17:21.027Z,2.60
2023-03-30T21:22:23.165Z,3.25
2023-03-30T21:27:28.019Z,4.90
2023-03-30T21:32:31.597Z,2.88
2023-03-30T21:37:34.010Z,2.95
2023-03-30T21:42:36.189Z,2.92
2023-03-30T21:47:39.402Z,3.15
2023-03-30T21:52:41.591Z,2.88
2023-03-30T21:57:43.648Z,4.38
2023-03-30T22:02:45.952Z,3.60
2023-03-30T22:07:48.073Z,4.10
2023-03-30T22:12:50.447Z,2.70
2023-03-30T22:17:52.588Z,3.65
2023-03-30T22:22:56.562Z,3.17
2023-03-30T22:28:01.276Z,3.45
2023-03-30T22:33:03.414Z,5.47
2023-03-30T22:38:06.448Z,5.43
2023-03-30T22:43:10.146Z,4.82
2023-03-30T22:48:12.241Z,5.75
2023-03-30T22:53:14.293Z,3.22
2023-03-30T22:58:16.448Z,3.78
2023-03-30T23:03:19.097Z,4.57
2023-03-30T23:08:21.621Z,3.35
2023-03-30T23:13:24.321Z,4.40
2023-03-30T23:18:27.108Z,4.10
2023-03-30T23:23:29.259Z,3.97
2023-03-30T23:28:31.563Z,3.45
2023-03-30T23:33:33.634Z,3.25
2023-03-30T23:38:36.239Z,4.72
2023-03-30T23:43:38.325Z,3.85
2023-03-30T23:48:41.205Z,2.70
2023-03-30T23:53:43.394Z,2.80
2023-03-30T23:58:45.843Z,4.40
